sensor_id;sensor_type;location;lat;lon;timestamp;pressure;altitude;pressure_sealevel;temperature;humidity
13456;BME280;6800;50.940;6.940;2023-05-03T00:02:04;102011.09;;;17.48;34.57
13456;BME280;6800;50.940;6.940;2023-05-03T00:06:12;102011.88;;;17.50;34.51
13456;BME280;6800;50.940;6.940;2023-05-03T00:10:14;102016.13;;;17.38;34.43
13456;BME280;6800;50.940;6.940;2023-05-03T00:14:16;102018.16;;;16.34;36.45
13456;BME280;6800;50.940;6.940;2023-05-03T00:18:17;102010.75;;;16.41;36.34
13456;BME280;6800;50.940;6.940;2023-05-03T00:22:19;101999.31;;;16.70;36.37
13456;BME280;6800;50.940;6.940;2023-05-03T00:26:20;101998.00;;;16.63;36.43
13456;BME280;6800;50.940;6.940;2023-05-03T00:30:24;101987.72;;;17.82;34.22
13456;BME280;6800;50.940;6.940;2023-05-03T00:34:25;101983.94;;;17.46;34.55
13456;BME280;6800;50.940;6.940;2023-05-03T00:38:26;101991.50;;;17.38;34.68
13456;BME280;6800;50.940;6.940;2023-05-03T00:42:28;102001.47;;;16.20;36.90
13456;BME280;6800;50.940;6.940;2023-05-03T00:46:29;102007.72;;;16.03;37.10
13456;BME280;6800;50.940;6.940;2023-05-03T00:50:31;102012.22;;;16.31;37.38
13456;BME280;6800;50.940;6.940;2023-05-03T00:54:32;102009.91;;;16.11;37.19
13456;BME280;6800;50.940;6.940;2023-05-03T00:58:35;102006.78;;;15.59;38.35
13456;BME280;6800;50.940;6.940;2023-05-03T01:02:40;102017.97;;;16.08;36.77
13456;BME280;6800;50.940;6.940;2023-05-03T01:11:07;102005.25;;;16.30;36.43
13456;BME280;6800;50.940;6.940;2023-05-03T01:20:05;101994.88;;;16.13;37.06
13456;BME280;6800;50.940;6.940;2023-05-03T01:24:12;101997.59;;;16.55;36.71
13456;BME280;6800;50.940;6.940;2023-05-03T01:28:18;101993.28;;;16.24;37.41
13456;BME280;6800;50.940;6.940;2023-05-03T01:32:28;101990.34;;;17.15;35.56
13456;BME280;6800;50.940;6.940;2023-05-03T01:36:33;101999.84;;;16.47;36.77
13456;BME280;6800;50.940;6.940;2023-05-03T01:40:41;101989.00;;;15.78;37.80
13456;BME280;6800;50.940;6.940;2023-05-03T01:44:43;101994.47;;;16.49;36.85
13456;BME280;6800;50.940;6.940;2023-05-03T01:48:46;101988.94;;;16.53;37.12
13456;BME280;6800;50.940;6.940;2023-05-03T01:52:47;101997.19;;;16.47;36.99
13456;BME280;6800;50.940;6.940;2023-05-03T01:56:51;102002.41;;;15.74;38.75
13456;BME280;6800;50.940;6.940;2023-05-03T02:00:52;102006.06;;;16.16;37.62
13456;BME280;6800;50.940;6.940;2023-05-03T02:04:54;102007.78;;;16.31;37.09
13456;BME280;6800;50.940;6.940;2023-05-03T02:08:56;102014.56;;;15.29;39.09
13456;BME280;6800;50.940;6.940;2023-05-03T02:12:57;102016.66;;;16.74;36.76
13456;BME280;6800;50.940;6.940;2023-05-03T02:16:59;102014.28;;;16.70;36.51
13456;BME280;6800;50.940;6.940;2023-05-03T02:21:03;102028.97;;;16.60;37.12
13456;BME280;6800;50.940;6.940;2023-05-03T02:25:05;102025.47;;;16.00;38.12
13456;BME280;6800;50.940;6.940;2023-05-03T02:29:07;102032.28;;;16.04;38.33
13456;BME280;6800;50.940;6.940;2023-05-03T02:33:10;102038.00;;;16.56;37.17
13456;BME280;6800;50.940;6.940;2023-05-03T02:37:11;102037.75;;;16.74;36.90
13456;BME280;6800;50.940;6.940;2023-05-03T02:41:13;102044.03;;;16.28;37.33
13456;BME280;6800;50.940;6.940;2023-05-03T02:45:14;102043.03;;;16.45;37.43
13456;BME280;6800;50.940;6.940;2023-05-03T02:49:16;102049.19;;;16.00;38.56
13456;BME280;6800;50.940;6.940;2023-05-03T02:53:17;102040.03;;;16.21;37.70
13456;BME280;6800;50.940;6.940;2023-05-03T02:57:18;102046.88;;;16.69;37.20
13456;BME280;6800;50.940;6.940;2023-05-03T03:01:20;102037.53;;;15.58;39.42
13456;BME280;6800;50.940;6.940;2023-05-03T03:05:22;102032.66;;;16.12;38.31
13456;BME280;6800;50.940;6.940;2023-05-03T03:09:23;102031.06;;;15.80;39.71
13456;BME280;6800;50.940;6.940;2023-05-03T03:13:25;102036.44;;;15.30;40.25
13456;BME280;6800;50.940;6.940;2023-05-03T03:17:27;102033.50;;;14.88;41.05
13456;BME280;6800;50.940;6.940;2023-05-03T03:21:28;102026.53;;;15.35;40.11
13456;BME280;6800;50.940;6.940;2023-05-03T03:25:29;102032.09;;;14.65;42.31
13456;BME280;6800;50.940;6.940;2023-05-03T03:29:33;102013.88;;;15.26;40.82
13456;BME280;6800;50.940;6.940;2023-05-03T03:33:35;102012.31;;;16.00;38.74
13456;BME280;6800;50.940;6.940;2023-05-03T03:37:37;102010.75;;;15.66;39.57
13456;BME280;6800;50.940;6.940;2023-05-03T03:41:39;102017.31;;;15.43;39.98
13456;BME280;6800;50.940;6.940;2023-05-03T03:45:40;102005.59;;;15.65;39.46
13456;BME280;6800;50.940;6.940;2023-05-03T03:49:42;102004.88;;;15.14;40.74
13456;BME280;6800;50.940;6.940;2023-05-03T03:53:43;102008.13;;;15.35;40.33
13456;BME280;6800;50.940;6.940;2023-05-03T03:57:44;102013.03;;;15.25;40.86
13456;BME280;6800;50.940;6.940;2023-05-03T04:01:46;102004.38;;;15.08;40.52
13456;BME280;6800;50.940;6.940;2023-05-03T04:05:49;102002.22;;;15.63;40.10
13456;BME280;6800;50.940;6.940;2023-05-03T04:09:50;101997.75;;;15.63;40.35
13456;BME280;6800;50.940;6.940;2023-05-03T04:13:52;101994.06;;;15.67;40.15
13456;BME280;6800;50.940;6.940;2023-05-03T04:17:53;101993.78;;;15.40;40.56
13456;BME280;6800;50.940;6.940;2023-05-03T04:21:55;101984.81;;;16.19;39.21
13456;BME280;6800;50.940;6.940;2023-05-03T04:25:56;101972.72;;;16.45;38.72
13456;BME280;6800;50.940;6.940;2023-05-03T04:29:58;101974.59;;;16.43;37.83
13456;BME280;6800;50.940;6.940;2023-05-03T04:34:00;101972.72;;;16.45;37.73
13456;BME280;6800;50.940;6.940;2023-05-03T04:38:01;101986.47;;;16.50;36.86
13456;BME280;6800;50.940;6.940;2023-05-03T04:42:04;101994.69;;;16.74;36.51
13456;BME280;6800;50.940;6.940;2023-05-03T04:46:06;101999.97;;;16.74;36.33
13456;BME280;6800;50.940;6.940;2023-05-03T04:50:08;102004.38;;;16.59;36.90
13456;BME280;6800;50.940;6.940;2023-05-03T04:54:11;102019.94;;;17.06;35.78
13456;BME280;6800;50.940;6.940;2023-05-03T04:58:12;102018.16;;;16.64;36.54
13456;BME280;6800;50.940;6.940;2023-05-03T05:02:14;102026.81;;;17.08;36.17
13456;BME280;6800;50.940;6.940;2023-05-03T05:06:15;102024.72;;;17.13;36.23
13456;BME280;6800;50.940;6.940;2023-05-03T05:10:16;102018.50;;;17.29;35.87
13456;BME280;6800;50.940;6.940;2023-05-03T05:14:18;102020.41;;;17.12;36.26
13456;BME280;6800;50.940;6.940;2023-05-03T05:18:19;102022.91;;;17.42;35.88
13456;BME280;6800;50.940;6.940;2023-05-03T05:22:21;102017.22;;;17.62;35.39
13456;BME280;6800;50.940;6.940;2023-05-03T05:26:22;102018.38;;;17.44;35.40
13456;BME280;6800;50.940;6.940;2023-05-03T05:30:23;102035.75;;;17.34;35.29
13456;BME280;6800;50.940;6.940;2023-05-03T05:34:25;102037.66;;;16.46;37.16
13456;BME280;6800;50.940;6.940;2023-05-03T05:38:27;102045.03;;;17.68;35.18
13456;BME280;6800;50.940;6.940;2023-05-03T05:42:28;102061.56;;;16.73;36.57
13456;BME280;6800;50.940;6.940;2023-05-03T05:46:30;102047.25;;;18.27;33.16
13456;BME280;6800;50.940;6.940;2023-05-03T05:50:31;102066.81;;;19.02;31.97
13456;BME280;6800;50.940;6.940;2023-05-03T05:54:33;102060.41;;;19.78;30.86
13456;BME280;6800;50.940;6.940;2023-05-03T05:58:35;102060.69;;;20.34;29.64
13456;BME280;6800;50.940;6.940;2023-05-03T06:02:37;102058.47;;;20.28;29.84
13456;BME280;6800;50.940;6.940;2023-05-03T06:06:39;102054.53;;;21.23;28.52
13456;BME280;6800;50.940;6.940;2023-05-03T06:10:41;102059.69;;;20.91;29.02
13456;BME280;6800;50.940;6.940;2023-05-03T06:14:42;102073.28;;;17.80;32.64
13456;BME280;6800;50.940;6.940;2023-05-03T06:18:55;102074.28;;;19.20;31.22
13456;BME280;6800;50.940;6.940;2023-05-03T06:22:57;102079.50;;;18.72;32.67
13456;BME280;6800;50.940;6.940;2023-05-03T06:26:58;102073.44;;;19.20;30.63
13456;BME280;6800;50.940;6.940;2023-05-03T06:31:00;102072.91;;;18.64;32.64
13456;BME280;6800;50.940;6.940;2023-05-03T06:35:02;102065.38;;;19.47;30.70
13456;BME280;6800;50.940;6.940;2023-05-03T06:39:04;102064.44;;;21.54;27.81
13456;BME280;6800;50.940;6.940;2023-05-03T06:43:06;102070.47;;;21.45;27.36
13456;BME280;6800;50.940;6.940;2023-05-03T06:47:07;102089.03;;;18.87;31.78
13456;BME280;6800;50.940;6.940;2023-05-03T06:51:09;102072.66;;;22.37;27.13
13456;BME280;6800;50.940;6.940;2023-05-03T06:55:11;102058.19;;;23.90;24.58
13456;BME280;6800;50.940;6.940;2023-05-03T06:59:12;102070.22;;;22.13;25.56
13456;BME280;6800;50.940;6.940;2023-05-03T07:03:13;102056.81;;;24.53;24.04
13456;BME280;6800;50.940;6.940;2023-05-03T07:07:15;102059.41;;;26.61;21.80
13456;BME280;6800;50.940;6.940;2023-05-03T07:11:20;102046.09;;;27.03;20.74
13456;BME280;6800;50.940;6.940;2023-05-03T07:15:24;102053.16;;;24.45;23.61
13456;BME280;6800;50.940;6.940;2023-05-03T07:19:26;102060.41;;;22.14;26.85
13456;BME280;6800;50.940;6.940;2023-05-03T07:23:27;102048.50;;;25.39;22.71
13456;BME280;6800;50.940;6.940;2023-05-03T07:27:29;102042.09;;;26.56;21.22
13456;BME280;6800;50.940;6.940;2023-05-03T07:31:30;102048.97;;;26.76;21.33
13456;BME280;6800;50.940;6.940;2023-05-03T07:35:32;102042.69;;;25.89;22.14
13456;BME280;6800;50.940;6.940;2023-05-03T07:39:34;102039.94;;;25.36;21.64
13456;BME280;6800;50.940;6.940;2023-05-03T07:43:35;102034.53;;;23.38;23.81
13456;BME280;6800;50.940;6.940;2023-05-03T07:47:36;102026.09;;;25.68;22.02
13456;BME280;6800;50.940;6.940;2023-05-03T07:51:40;102024.03;;;24.61;22.49
13456;BME280;6800;50.940;6.940;2023-05-03T07:55:41;102029.53;;;24.59;23.37
13456;BME280;6800;50.940;6.940;2023-05-03T07:59:43;102005.69;;;26.96;19.83
13456;BME280;6800;50.940;6.940;2023-05-03T08:03:44;101989.78;;;27.53;19.07
13456;BME280;6800;50.940;6.940;2023-05-03T08:07:46;101995.69;;;28.61;18.79
13456;BME280;6800;50.940;6.940;2023-05-03T08:11:48;101993.16;;;28.76;17.50
13456;BME280;6800;50.940;6.940;2023-05-03T08:15:52;101996.69;;;27.63;19.13
13456;BME280;6800;50.940;6.940;2023-05-03T08:19:54;101998.75;;;27.94;18.72
13456;BME280;6800;50.940;6.940;2023-05-03T08:23:57;102011.09;;;24.66;22.25
13456;BME280;6800;50.940;6.940;2023-05-03T08:28:01;102006.94;;;24.35;22.85
13456;BME280;6800;50.940;6.940;2023-05-03T08:32:03;101995.38;;;27.83;18.93
13456;BME280;6800;50.940;6.940;2023-05-03T08:36:14;101992.84;;;26.74;20.24
13456;BME280;6800;50.940;6.940;2023-05-03T08:40:19;101987.06;;;29.28;18.01
13456;BME280;6800;50.940;6.940;2023-05-03T08:44:22;101991.38;;;28.04;18.67
13456;BME280;6800;50.940;6.940;2023-05-03T08:48:25;101981.84;;;29.58;17.46
13456;BME280;6800;50.940;6.940;2023-05-03T08:52:38;101985.19;;;30.71;16.12
13456;BME280;6800;50.940;6.940;2023-05-03T08:56:43;101981.94;;;28.48;18.52
13456;BME280;6800;50.940;6.940;2023-05-03T09:00:45;101975.94;;;25.52;20.94
13456;BME280;6800;50.940;6.940;2023-05-03T09:04:47;101989.69;;;21.80;24.57
13456;BME280;6800;50.940;6.940;2023-05-03T09:08:49;101976.94;;;25.86;20.63
13456;BME280;6800;50.940;6.940;2023-05-03T09:12:57;101966.66;;;29.65;17.75
13456;BME280;6800;50.940;6.940;2023-05-03T09:17:13;101962.75;;;31.50;15.55
13456;BME280;6800;50.940;6.940;2023-05-03T09:21:18;101964.63;;;31.14;16.26
13456;BME280;6800;50.940;6.940;2023-05-03T09:25:20;101965.03;;;30.38;16.05
13456;BME280;6800;50.940;6.940;2023-05-03T09:29:30;101972.09;;;26.51;19.62
13456;BME280;6800;50.940;6.940;2023-05-03T09:33:32;101959.59;;;27.51;19.62
13456;BME280;6800;50.940;6.940;2023-05-03T09:37:37;101974.25;;;23.07;23.32
13456;BME280;6800;50.940;6.940;2023-05-03T09:41:39;101963.19;;;25.36;21.23
13456;BME280;6800;50.940;6.940;2023-05-03T09:45:40;101947.25;;;29.92;17.72
13456;BME280;6800;50.940;6.940;2023-05-03T09:49:42;101945.59;;;27.23;19.33
13456;BME280;6800;50.940;6.940;2023-05-03T09:53:43;101947.63;;;24.87;21.05
13456;BME280;6800;50.940;6.940;2023-05-03T09:57:46;101939.00;;;27.67;19.07
13456;BME280;6800;50.940;6.940;2023-05-03T10:01:49;101946.13;;;25.82;20.41
13456;BME280;6800;50.940;6.940;2023-05-03T10:05:53;101945.50;;;26.06;20.63
13456;BME280;6800;50.940;6.940;2023-05-03T10:09:55;101928.56;;;29.90;16.47
13456;BME280;6800;50.940;6.940;2023-05-03T10:13:59;101921.88;;;28.80;17.55
13456;BME280;6800;50.940;6.940;2023-05-03T10:18:01;101904.16;;;29.47;17.15
13456;BME280;6800;50.940;6.940;2023-05-03T10:22:10;101908.78;;;26.50;19.93
13456;BME280;6800;50.940;6.940;2023-05-03T10:26:12;101900.09;;;25.26;21.57
13456;BME280;6800;50.940;6.940;2023-05-03T10:34:31;101885.81;;;31.40;15.66
13456;BME280;6800;50.940;6.940;2023-05-03T10:38:33;101899.78;;;26.92;19.74
13456;BME280;6800;50.940;6.940;2023-05-03T10:42:36;101891.13;;;25.44;21.47
13456;BME280;6800;50.940;6.940;2023-05-03T10:46:38;101897.22;;;26.15;20.17
13456;BME280;6800;50.940;6.940;2023-05-03T10:50:41;101890.28;;;27.14;19.83
13456;BME280;6800;50.940;6.940;2023-05-03T10:54:42;101881.00;;;29.15;18.50
13456;BME280;6800;50.940;6.940;2023-05-03T10:58:45;101875.31;;;30.95;16.48
13456;BME280;6800;50.940;6.940;2023-05-03T11:07:06;101878.25;;;27.74;18.47
13456;BME280;6800;50.940;6.940;2023-05-03T11:11:10;101878.75;;;25.87;20.15
13456;BME280;6800;50.940;6.940;2023-05-03T11:15:12;101881.94;;;25.65;20.65
13456;BME280;6800;50.940;6.940;2023-05-03T11:19:14;101881.19;;;26.23;20.12
13456;BME280;6800;50.940;6.940;2023-05-03T11:23:16;101860.19;;;29.77;16.60
13456;BME280;6800;50.940;6.940;2023-05-03T11:27:23;101865.72;;;30.56;16.45
13456;BME280;6800;50.940;6.940;2023-05-03T11:31:25;101850.84;;;33.03;14.50
13456;BME280;6800;50.940;6.940;2023-05-03T11:35:30;101846.16;;;34.92;12.83
13456;BME280;6800;50.940;6.940;2023-05-03T11:39:32;101847.13;;;30.03;16.96
13456;BME280;6800;50.940;6.940;2023-05-03T11:43:39;101845.56;;;30.08;16.61
13456;BME280;6800;50.940;6.940;2023-05-03T11:47:41;101840.50;;;30.20;16.33
13456;BME280;6800;50.940;6.940;2023-05-03T11:51:42;101827.53;;;33.02;14.38
13456;BME280;6800;50.940;6.940;2023-05-03T11:55:50;101826.81;;;30.65;16.29
13456;BME280;6800;50.940;6.940;2023-05-03T11:59:53;101824.69;;;31.39;15.44
13456;BME280;6800;50.940;6.940;2023-05-03T12:04:00;101824.59;;;31.47;15.72
13456;BME280;6800;50.940;6.940;2023-05-03T12:08:03;101814.94;;;32.21;15.21
13456;BME280;6800;50.940;6.940;2023-05-03T12:12:06;101815.59;;;28.22;18.24
13456;BME280;6800;50.940;6.940;2023-05-03T12:16:11;101821.34;;;29.34;17.17
13456;BME280;6800;50.940;6.940;2023-05-03T12:20:17;101806.88;;;28.90;16.83
13456;BME280;6800;50.940;6.940;2023-05-03T12:24:22;101815.97;;;26.74;19.31
13456;BME280;6800;50.940;6.940;2023-05-03T12:28:25;101801.75;;;26.74;19.73
13456;BME280;6800;50.940;6.940;2023-05-03T12:32:26;101803.63;;;29.40;17.12
13456;BME280;6800;50.940;6.940;2023-05-03T12:36:29;101793.47;;;29.04;17.51
13456;BME280;6800;50.940;6.940;2023-05-03T12:40:32;101782.91;;;29.25;18.15
13456;BME280;6800;50.940;6.940;2023-05-03T12:44:38;101786.53;;;28.26;18.81
13456;BME280;6800;50.940;6.940;2023-05-03T12:48:43;101775.66;;;28.58;17.65
13456;BME280;6800;50.940;6.940;2023-05-03T12:52:47;101782.94;;;24.86;21.90
13456;BME280;6800;50.940;6.940;2023-05-03T12:56:53;101768.59;;;27.47;19.10
13456;BME280;6800;50.940;6.940;2023-05-03T13:00:55;101760.41;;;27.25;19.49
13456;BME280;6800;50.940;6.940;2023-05-03T13:05:01;101752.63;;;27.78;19.17
13456;BME280;6800;50.940;6.940;2023-05-03T13:09:11;101745.31;;;27.08;20.08
13456;BME280;6800;50.940;6.940;2023-05-03T13:13:22;101745.13;;;26.19;20.14
13456;BME280;6800;50.940;6.940;2023-05-03T13:17:25;101740.88;;;26.58;19.58
13456;BME280;6800;50.940;6.940;2023-05-03T13:21:26;101721.78;;;27.58;18.48
13456;BME280;6800;50.940;6.940;2023-05-03T13:25:28;101719.69;;;26.97;19.08
13456;BME280;6800;50.940;6.940;2023-05-03T13:29:31;101726.94;;;25.63;20.13
13456;BME280;6800;50.940;6.940;2023-05-03T13:33:32;101709.44;;;27.17;18.77
13456;BME280;6800;50.940;6.940;2023-05-03T13:37:38;101721.19;;;24.89;20.71
13456;BME280;6800;50.940;6.940;2023-05-03T13:41:40;101703.59;;;25.47;20.65
13456;BME280;6800;50.940;6.940;2023-05-03T13:45:42;101687.16;;;27.16;19.84
13456;BME280;6800;50.940;6.940;2023-05-03T13:49:43;101689.81;;;27.48;18.92
13456;BME280;6800;50.940;6.940;2023-05-03T13:53:45;101676.06;;;27.90;18.37
13456;BME280;6800;50.940;6.940;2023-05-03T13:57:46;101664.59;;;27.57;18.91
13456;BME280;6800;50.940;6.940;2023-05-03T14:01:47;101665.41;;;25.12;20.86
13456;BME280;6800;50.940;6.940;2023-05-03T14:05:49;101650.06;;;27.44;18.98
13456;BME280;6800;50.940;6.940;2023-05-03T14:09:50;101655.09;;;27.39;19.16
13456;BME280;6800;50.940;6.940;2023-05-03T14:13:52;101653.94;;;27.41;19.09
13456;BME280;6800;50.940;6.940;2023-05-03T14:17:57;101645.31;;;28.01;18.52
13456;BME280;6800;50.940;6.940;2023-05-03T14:22:04;101631.69;;;27.63;18.29
13456;BME280;6800;50.940;6.940;2023-05-03T14:26:06;101634.28;;;25.62;20.62
13456;BME280;6800;50.940;6.940;2023-05-03T14:30:07;101619.63;;;27.67;18.12
13456;BME280;6800;50.940;6.940;2023-05-03T14:34:10;101620.38;;;25.25;21.42
13456;BME280;6800;50.940;6.940;2023-05-03T14:38:11;101615.00;;;25.92;20.34
13456;BME280;6800;50.940;6.940;2023-05-03T14:42:12;101608.34;;;27.17;19.31
13456;BME280;6800;50.940;6.940;2023-05-03T14:46:14;101597.69;;;26.69;20.00
13456;BME280;6800;50.940;6.940;2023-05-03T14:50:16;101600.06;;;26.32;20.33
13456;BME280;6800;50.940;6.940;2023-05-03T14:54:17;101593.00;;;27.58;19.26
13456;BME280;6800;50.940;6.940;2023-05-03T14:58:19;101588.44;;;27.97;18.88
13456;BME280;6800;50.940;6.940;2023-05-03T15:02:21;101584.84;;;27.74;18.53
13456;BME280;6800;50.940;6.940;2023-05-03T15:06:27;101590.59;;;25.95;20.33
13456;BME280;6800;50.940;6.940;2023-05-03T15:10:30;101574.50;;;27.94;18.52
13456;BME280;6800;50.940;6.940;2023-05-03T15:14:32;101573.13;;;27.28;19.43
13456;BME280;6800;50.940;6.940;2023-05-03T15:18:33;101566.75;;;27.37;18.86
13456;BME280;6800;50.940;6.940;2023-05-03T15:22:35;101576.34;;;28.01;17.93
13456;BME280;6800;50.940;6.940;2023-05-03T15:26:37;101569.25;;;26.68;19.57
13456;BME280;6800;50.940;6.940;2023-05-03T15:30:38;101565.56;;;26.77;19.54
13456;BME280;6800;50.940;6.940;2023-05-03T15:34:40;101566.66;;;28.15;18.10
13456;BME280;6800;50.940;6.940;2023-05-03T15:38:41;101573.50;;;25.88;20.71
13456;BME280;6800;50.940;6.940;2023-05-03T15:42:42;101572.47;;;25.81;20.73
13456;BME280;6800;50.940;6.940;2023-05-03T15:46:44;101567.50;;;28.15;18.33
13456;BME280;6800;50.940;6.940;2023-05-03T15:50:45;101567.28;;;28.25;18.32
13456;BME280;6800;50.940;6.940;2023-05-03T15:54:47;101559.78;;;25.83;20.48
13456;BME280;6800;50.940;6.940;2023-05-03T15:58:48;101561.72;;;25.49;21.19
13456;BME280;6800;50.940;6.940;2023-05-03T16:02:50;101561.22;;;26.36;20.14
13456;BME280;6800;50.940;6.940;2023-05-03T16:06:52;101552.16;;;26.69;20.08
13456;BME280;6800;50.940;6.940;2023-05-03T16:10:53;101553.38;;;27.91;18.43
13456;BME280;6800;50.940;6.940;2023-05-03T16:14:54;101544.16;;;25.54;21.18
13456;BME280;6800;50.940;6.940;2023-05-03T16:18:56;101551.44;;;26.99;19.88
13456;BME280;6800;50.940;6.940;2023-05-03T16:22:57;101539.94;;;27.99;18.85
13456;BME280;6800;50.940;6.940;2023-05-03T16:27:00;101533.44;;;28.16;18.29
13456;BME280;6800;50.940;6.940;2023-05-03T16:31:02;101531.88;;;26.66;19.75
13456;BME280;6800;50.940;6.940;2023-05-03T16:35:03;101532.28;;;26.23;20.52
13456;BME280;6800;50.940;6.940;2023-05-03T16:39:05;101522.75;;;28.08;18.92
13456;BME280;6800;50.940;6.940;2023-05-03T16:43:06;101535.38;;;28.22;18.90
13456;BME280;6800;50.940;6.940;2023-05-03T16:47:08;101527.84;;;26.94;20.02
13456;BME280;6800;50.940;6.940;2023-05-03T16:51:09;101533.78;;;28.13;19.00
13456;BME280;6800;50.940;6.940;2023-05-03T16:55:11;101524.00;;;27.66;19.32
13456;BME280;6800;50.940;6.940;2023-05-03T16:59:13;101518.84;;;28.33;18.21
13456;BME280;6800;50.940;6.940;2023-05-03T17:03:15;101517.25;;;28.24;19.13
13456;BME280;6800;50.940;6.940;2023-05-03T17:07:17;101515.53;;;28.45;18.65
13456;BME280;6800;50.940;6.940;2023-05-03T17:11:18;101506.53;;;27.70;19.23
13456;BME280;6800;50.940;6.940;2023-05-03T17:15:20;101509.53;;;27.45;18.93
13456;BME280;6800;50.940;6.940;2023-05-03T17:19:23;101505.91;;;28.14;18.28
13456;BME280;6800;50.940;6.940;2023-05-03T17:23:27;101503.25;;;28.28;18.19
13456;BME280;6800;50.940;6.940;2023-05-03T17:27:29;101504.09;;;28.29;18.31
13456;BME280;6800;50.940;6.940;2023-05-03T17:31:30;101496.06;;;28.43;18.02
13456;BME280;6800;50.940;6.940;2023-05-03T17:35:32;101497.66;;;27.93;18.31
13456;BME280;6800;50.940;6.940;2023-05-03T17:39:33;101495.13;;;26.20;23.51
13456;BME280;6800;50.940;6.940;2023-05-03T17:43:35;101499.28;;;26.22;24.34
13456;BME280;6800;50.940;6.940;2023-05-03T17:47:37;101498.06;;;26.65;24.02
13456;BME280;6800;50.940;6.940;2023-05-03T17:51:38;101504.88;;;27.69;22.90
13456;BME280;6800;50.940;6.940;2023-05-03T17:55:39;101501.56;;;27.29;23.54
13456;BME280;6800;50.940;6.940;2023-05-03T17:59:41;101493.03;;;26.86;23.72
13456;BME280;6800;50.940;6.940;2023-05-03T18:03:42;101498.28;;;26.32;24.87
13456;BME280;6800;50.940;6.940;2023-05-03T18:07:44;101498.69;;;26.91;24.21
13456;BME280;6800;50.940;6.940;2023-05-03T18:11:47;101499.34;;;27.32;24.17
13456;BME280;6800;50.940;6.940;2023-05-03T18:15:48;101496.72;;;26.77;25.15
13456;BME280;6800;50.940;6.940;2023-05-03T18:19:50;101509.59;;;25.77;26.46
13456;BME280;6800;50.940;6.940;2023-05-03T18:23:52;101513.06;;;25.53;26.14
13456;BME280;6800;50.940;6.940;2023-05-03T18:27:53;101507.88;;;25.44;27.07
13456;BME280;6800;50.940;6.940;2023-05-03T18:31:55;101515.06;;;24.58;27.92
13456;BME280;6800;50.940;6.940;2023-05-03T18:35:58;101522.97;;;24.68;27.50
13456;BME280;6800;50.940;6.940;2023-05-03T18:39:59;101518.25;;;25.47;26.71
13456;BME280;6800;50.940;6.940;2023-05-03T18:44:04;101519.25;;;24.35;28.12
13456;BME280;6800;50.940;6.940;2023-05-03T18:48:06;101522.56;;;25.06;27.08
13456;BME280;6800;50.940;6.940;2023-05-03T18:52:07;101523.97;;;24.93;27.33
13456;BME280;6800;50.940;6.940;2023-05-03T18:56:09;101525.19;;;24.29;28.07
13456;BME280;6800;50.940;6.940;2023-05-03T19:00:11;101531.59;;;24.01;28.94
13456;BME280;6800;50.940;6.940;2023-05-03T19:04:13;101533.44;;;23.83;29.74
13456;BME280;6800;50.940;6.940;2023-05-03T19:08:15;101528.25;;;23.37;29.96
13456;BME280;6800;50.940;6.940;2023-05-03T19:12:17;101539.91;;;24.16;28.70
13456;BME280;6800;50.940;6.940;2023-05-03T19:16:18;101532.25;;;24.82;28.06
13456;BME280;6800;50.940;6.940;2023-05-03T19:20:20;101535.16;;;25.22;26.68
13456;BME280;6800;50.940;6.940;2023-05-03T19:24:21;101537.19;;;25.28;27.39
13456;BME280;6800;50.940;6.940;2023-05-03T19:28:23;101539.47;;;24.20;28.75
13456;BME280;6800;50.940;6.940;2023-05-03T19:32:24;101537.03;;;23.47;29.53
13456;BME280;6800;50.940;6.940;2023-05-03T19:36:26;101537.13;;;23.55;29.22
13456;BME280;6800;50.940;6.940;2023-05-03T19:40:28;101540.88;;;24.07;28.67
13456;BME280;6800;50.940;6.940;2023-05-03T19:44:29;101541.03;;;24.48;28.46
13456;BME280;6800;50.940;6.940;2023-05-03T19:48:30;101539.69;;;22.73;30.30
13456;BME280;6800;50.940;6.940;2023-05-03T19:52:32;101538.38;;;24.31;28.17
13456;BME280;6800;50.940;6.940;2023-05-03T19:56:34;101533.84;;;23.61;29.31
13456;BME280;6800;50.940;6.940;2023-05-03T20:00:35;101526.69;;;23.61;29.45
13456;BME280;6800;50.940;6.940;2023-05-03T20:04:36;101531.44;;;23.85;29.08
13456;BME280;6800;50.940;6.940;2023-05-03T20:08:38;101527.88;;;23.94;28.45
13456;BME280;6800;50.940;6.940;2023-05-03T20:12:39;101533.56;;;23.64;29.47
13456;BME280;6800;50.940;6.940;2023-05-03T20:16:41;101537.53;;;23.23;30.07
13456;BME280;6800;50.940;6.940;2023-05-03T20:20:43;101532.97;;;23.15;29.75
13456;BME280;6800;50.940;6.940;2023-05-03T20:24:44;101533.22;;;22.76;30.99
13456;BME280;6800;50.940;6.940;2023-05-03T20:28:46;101535.94;;;23.40;29.78
13456;BME280;6800;50.940;6.940;2023-05-03T20:32:47;101532.63;;;22.91;30.76
13456;BME280;6800;50.940;6.940;2023-05-03T20:36:50;101538.09;;;23.98;29.36
13456;BME280;6800;50.940;6.940;2023-05-03T20:40:52;101527.66;;;23.06;30.48
13456;BME280;6800;50.940;6.940;2023-05-03T20:44:53;101529.16;;;22.81;31.07
13456;BME280;6800;50.940;6.940;2023-05-03T20:48:56;101531.25;;;23.14;30.50
13456;BME280;6800;50.940;6.940;2023-05-03T20:52:57;101537.91;;;22.07;32.21
13456;BME280;6800;50.940;6.940;2023-05-03T20:56:59;101537.63;;;23.31;30.63
13456;BME280;6800;50.940;6.940;2023-05-03T21:01:01;101525.69;;;22.71;31.37
13456;BME280;6800;50.940;6.940;2023-05-03T21:05:04;101527.34;;;22.82;31.10
13456;BME280;6800;50.940;6.940;2023-05-03T21:09:06;101536.22;;;21.87;32.77
13456;BME280;6800;50.940;6.940;2023-05-03T21:13:08;101531.84;;;23.08;30.85
13456;BME280;6800;50.940;6.940;2023-05-03T21:17:10;101523.03;;;22.62;31.12
13456;BME280;6800;50.940;6.940;2023-05-03T21:21:12;101518.25;;;22.65;31.15
13456;BME280;6800;50.940;6.940;2023-05-03T21:25:14;101533.22;;;21.80;32.58
13456;BME280;6800;50.940;6.940;2023-05-03T21:29:15;101527.44;;;21.46;33.00
13456;BME280;6800;50.940;6.940;2023-05-03T21:33:17;101523.56;;;22.65;31.19
13456;BME280;6800;50.940;6.940;2023-05-03T21:37:19;101516.06;;;22.41;31.70
13456;BME280;6800;50.940;6.940;2023-05-03T21:41:20;101516.44;;;22.75;31.43